createdAt,value
2023-03-05T00:00:29.809Z,39.33
2023-03-05T00:03:18.461Z,39.77
2023-03-05T00:06:07.896Z,45.47
2023-03-05T00:08:58.231Z,36.40
2023-03-05T00:11:46.668Z,33.83
2023-03-05T00:14:35.111Z,36.80
2023-03-05T00:17:25.010Z,42.97
2023-03-05T00:20:14.000Z,31.17
2023-03-05T00:23:02.534Z,31.27
2023-03-05T00:25:51.133Z,33.90
2023-03-05T00:28:39.662Z,29.83
2023-03-05T00:31:30.988Z,33.77
2023-03-05T00:34:21.556Z,31.30
2023-03-05T00:37:10.029Z,32.87
2023-03-05T00:39:58.735Z,47.27
2023-03-05T00:42:47.250Z,33.07
2023-03-05T00:45:35.875Z,35.27
2023-03-05T00:48:25.470Z,36.13
2023-03-05T00:51:15.403Z,32.97
2023-03-05T00:54:04.475Z,35.80
2023-03-05T00:56:53.006Z,32.30
2023-03-05T00:59:41.526Z,36.93
2023-03-05T01:02:29.949Z,27.73
2023-03-05T01:05:19.084Z,31.50
2023-03-05T01:08:08.908Z,30.93
2023-03-05T01:10:57.549Z,35.50
2023-03-05T01:13:46.036Z,31.07
2023-03-05T01:16:34.600Z,35.07
2023-03-05T01:19:23.108Z,34.80
2023-03-05T01:22:11.628Z,34.20
2023-03-05T01:25:01.677Z,33.20
2023-03-05T01:27:50.120Z,59.67
2023-03-05T01:30:38.600Z,25.20
2023-03-05T01:33:27.145Z,30.50
2023-03-05T01:36:17.487Z,28.87
2023-03-05T01:39:05.959Z,35.00
2023-03-05T01:41:55.786Z,26.70
2023-03-05T01:45:03.334Z,32.97
2023-03-05T01:47:51.931Z,36.93
2023-03-05T01:50:40.401Z,32.57
2023-03-05T01:53:28.917Z,26.93
2023-03-05T01:56:17.956Z,34.57
2023-03-05T01:59:08.066Z,30.10
2023-03-05T02:01:58.084Z,31.27
2023-03-05T02:04:51.764Z,36.07
2023-03-05T02:07:42.952Z,34.37
2023-03-05T02:10:33.741Z,28.63
2023-03-05T02:13:24.241Z,29.47
2023-03-05T02:16:14.177Z,27.27
2023-03-05T02:19:03.511Z,23.20
2023-03-05T02:21:53.469Z,31.80
2023-03-05T02:24:41.994Z,24.90
2023-03-05T02:27:35.050Z,29.60
2023-03-05T02:30:23.596Z,34.37
2023-03-05T02:33:12.321Z,33.90
2023-03-05T02:36:00.837Z,34.03
2023-03-05T02:38:50.952Z,30.20
2023-03-05T02:41:39.454Z,31.23
2023-03-05T02:44:28.186Z,27.97
2023-03-05T02:47:16.720Z,28.40
2023-03-05T02:50:06.955Z,25.30
2023-03-05T02:52:55.402Z,31.17
2023-03-05T02:55:47.632Z,30.07
2023-03-05T02:58:36.087Z,29.43
2023-03-05T03:01:24.689Z,28.87
2023-03-05T03:04:13.218Z,29.77
2023-03-05T03:07:01.727Z,30.77
2023-03-05T03:09:50.272Z,31.17
2023-03-05T03:12:40.359Z,32.60
2023-03-05T03:15:29.098Z,32.57
2023-03-05T03:18:17.582Z,29.30
2023-03-05T03:21:06.835Z,31.60
2023-03-05T03:23:55.377Z,35.93
2023-03-05T03:26:43.870Z,32.90
2023-03-05T03:29:33.790Z,35.23
2023-03-05T03:32:22.310Z,31.10
2023-03-05T03:35:12.047Z,28.63
2023-03-05T03:38:00.682Z,29.47
2023-03-05T03:40:49.127Z,30.67
2023-03-05T03:43:38.170Z,30.43
2023-03-05T03:46:28.104Z,25.43
2023-03-05T03:49:19.165Z,25.30
2023-03-05T03:52:07.974Z,27.97
2023-03-05T03:54:55.942Z,30.30
2023-03-05T03:57:44.449Z,30.87
2023-03-05T04:00:32.967Z,33.53
2023-03-05T04:03:22.811Z,31.10
2023-03-05T04:06:11.378Z,31.27
2023-03-05T04:08:59.960Z,37.37
2023-03-05T04:11:48.508Z,33.10
2023-03-05T04:14:37.268Z,34.60
2023-03-05T04:17:25.821Z,31.17
2023-03-05T04:20:15.805Z,32.27
2023-03-05T04:23:04.287Z,27.47
2023-03-05T04:25:52.750Z,27.43
2023-03-05T04:28:41.223Z,30.37
2023-03-05T04:31:29.725Z,38.13
2023-03-05T04:34:18.301Z,36.30
2023-03-05T04:37:08.136Z,31.70
2023-03-05T04:39:56.840Z,34.80
2023-03-05T04:42:45.756Z,34.50
2023-03-05T04:45:34.535Z,35.30
2023-03-05T04:48:23.054Z,29.00
2023-03-05T04:51:11.486Z,28.47
2023-03-05T04:54:01.281Z,31.30
2023-03-05T04:56:49.746Z,28.23
2023-03-05T04:59:38.679Z,40.30
2023-03-05T05:02:27.188Z,36.80
2023-03-05T05:05:18.222Z,32.40
2023-03-05T05:08:06.766Z,28.67
2023-03-05T05:11:01.818Z,37.80
2023-03-05T05:13:50.413Z,32.20
2023-03-05T05:16:38.872Z,33.77
2023-03-05T05:19:27.693Z,37.43
2023-03-05T05:22:16.181Z,36.30
2023-03-05T05:25:05.520Z,34.10
2023-03-05T05:27:55.378Z,33.90
2023-03-05T05:30:43.863Z,40.03
2023-03-05T05:33:32.308Z,34.87
2023-03-05T05:36:22.269Z,33.90
2023-03-05T05:39:10.917Z,33.23
2023-03-05T05:41:59.399Z,34.57
2023-03-05T05:44:49.240Z,39.00
2023-03-05T05:47:37.908Z,30.73
2023-03-05T05:50:27.211Z,38.17
2023-03-05T05:53:15.716Z,30.77
2023-03-05T05:56:05.250Z,35.70
2023-03-05T05:58:53.811Z,37.87
2023-03-05T06:01:43.639Z,34.37
2023-03-05T06:04:32.229Z,35.03
2023-03-05T06:07:20.755Z,34.87
2023-03-05T06:10:10.861Z,36.27
2023-03-05T06:12:59.464Z,37.73
2023-03-05T06:15:56.796Z,35.90
2023-03-05T06:18:46.625Z,40.30
2023-03-05T06:21:35.135Z,44.57
2023-03-05T06:24:23.592Z,41.33
2023-03-05T06:27:12.008Z,37.57
2023-03-05T06:30:00.625Z,35.90
2023-03-05T06:32:49.101Z,34.93
2023-03-05T06:35:40.424Z,31.20
2023-03-05T06:38:28.965Z,38.80
2023-03-05T06:41:19.436Z,35.53
2023-03-05T06:44:07.994Z,37.00
2023-03-05T06:46:56.462Z,34.03
2023-03-05T06:49:44.979Z,38.87
2023-03-05T06:52:36.016Z,44.13
2023-03-05T06:55:24.477Z,39.57
2023-03-05T06:58:13.004Z,38.30
2023-03-05T07:01:01.566Z,41.07
2023-03-05T07:03:51.191Z,36.73
2023-03-05T07:06:42.040Z,32.33
2023-03-05T07:09:31.868Z,35.43
2023-03-05T07:12:20.446Z,34.87
2023-03-05T07:15:10.038Z,37.17
2023-03-05T07:17:58.716Z,31.23
2023-03-05T07:20:47.353Z,41.87
2023-03-05T07:23:36.544Z,38.27
2023-03-05T07:26:26.598Z,37.43
2023-03-05T07:29:15.013Z,37.10
2023-03-05T07:32:03.501Z,40.90
2023-03-05T07:34:51.994Z,34.50
2023-03-05T07:37:40.805Z,41.80
2023-03-05T07:40:29.364Z,29.33
2023-03-05T07:43:19.258Z,34.63
2023-03-05T07:46:09.434Z,34.30
2023-03-05T07:48:58.343Z,33.80
2023-03-05T07:51:46.893Z,49.00
2023-03-05T07:54:37.549Z,42.10
2023-03-05T07:57:27.125Z,38.10
2023-03-05T08:00:18.018Z,36.63
2023-03-05T08:03:06.641Z,39.20
2023-03-05T08:05:55.118Z,38.73
2023-03-05T08:08:43.792Z,44.10
2023-03-05T08:11:32.311Z,36.33
2023-03-05T08:14:20.801Z,34.83
2023-03-05T08:17:10.647Z,40.03
2023-03-05T08:20:00.228Z,36.33
2023-03-05T08:22:48.759Z,45.87
2023-03-05T08:25:38.375Z,41.17
2023-03-05T08:28:27.062Z,38.90
2023-03-05T08:31:16.687Z,39.40
2023-03-05T08:34:07.016Z,35.77
2023-03-05T08:36:55.712Z,36.60
2023-03-05T08:39:44.212Z,39.83
2023-03-05T08:42:32.717Z,42.60
2023-03-05T08:45:21.247Z,38.20
2023-03-05T08:48:09.718Z,39.37
2023-03-05T08:51:00.104Z,39.53
2023-03-05T08:53:48.733Z,37.70
2023-03-05T08:56:38.259Z,38.20
2023-03-05T08:59:27.310Z,42.90
2023-03-05T09:02:16.656Z,42.23
2023-03-05T09:05:06.182Z,35.80
2023-03-05T09:07:56.404Z,41.03
2023-03-05T09:10:45.802Z,35.37
2023-03-05T09:13:34.933Z,36.67
2023-03-05T09:16:24.114Z,34.60
2023-03-05T09:19:15.307Z,38.30
2023-03-05T09:22:04.181Z,37.70
2023-03-05T09:24:54.516Z,42.50
2023-03-05T09:27:43.916Z,43.80
2023-03-05T09:30:32.934Z,37.20
2023-03-05T09:33:21.988Z,37.50
2023-03-05T09:36:23.371Z,42.60
2023-03-05T09:39:12.204Z,37.10
2023-03-05T09:42:18.942Z,36.47
2023-03-05T09:45:17.239Z,36.60
2023-03-05T09:48:12.644Z,35.73
2023-03-05T09:51:02.861Z,34.20
2023-03-05T09:53:57.199Z,36.23
2023-03-05T09:56:47.920Z,43.63
2023-03-05T09:59:45.561Z,37.90
2023-03-05T10:02:36.840Z,39.73
2023-03-05T10:05:29.256Z,37.20
2023-03-05T10:08:21.838Z,40.60
2023-03-05T10:11:30.175Z,40.57
2023-03-05T10:14:26.182Z,37.47
2023-03-05T10:17:52.020Z,39.87
2023-03-05T10:20:56.386Z,35.23
2023-03-05T10:23:53.092Z,35.20
2023-03-05T10:26:53.681Z,32.93
2023-03-05T10:29:53.435Z,44.23
2023-03-05T10:32:47.432Z,34.73
2023-03-05T10:35:45.999Z,39.30
2023-03-05T10:38:48.158Z,33.30
2023-03-05T10:41:42.644Z,30.10
2023-03-05T10:44:36.205Z,41.20
2023-03-05T10:47:28.810Z,33.60
2023-03-05T10:50:21.763Z,34.10
2023-03-05T10:53:16.751Z,29.87
2023-03-05T10:56:06.566Z,30.67
2023-03-05T10:58:55.173Z,29.63
2023-03-05T11:01:43.700Z,32.63
2023-03-05T11:04:36.707Z,33.70
2023-03-05T11:07:38.284Z,33.10
2023-03-05T11:10:26.806Z,27.30
2023-03-05T11:13:25.242Z,29.33
2023-03-05T11:16:20.808Z,28.57
2023-03-05T11:19:19.061Z,31.67
2023-03-05T11:22:16.369Z,32.63
2023-03-05T11:25:16.052Z,33.40
2023-03-05T11:28:04.892Z,33.67
2023-03-05T11:30:59.520Z,30.20
2023-03-05T11:33:57.670Z,31.50
2023-03-05T11:37:03.709Z,34.90
2023-03-05T11:40:17.258Z,30.17
2023-03-05T11:43:06.058Z,28.50
2023-03-05T11:45:56.982Z,33.90
2023-03-05T11:48:47.360Z,30.57
2023-03-05T11:51:42.177Z,29.27
2023-03-05T11:54:36.208Z,37.67
2023-03-05T11:57:27.270Z,35.93
2023-03-05T12:00:17.673Z,35.07
2023-03-05T12:03:10.782Z,37.67
2023-03-05T12:06:02.768Z,33.03
2023-03-05T12:08:53.550Z,38.03
2023-03-05T12:11:42.253Z,35.80
2023-03-05T12:14:38.201Z,36.07
2023-03-05T12:17:31.524Z,35.73
2023-03-05T12:20:26.541Z,29.57
2023-03-05T12:23:17.110Z,37.37
2023-03-05T12:26:06.180Z,24.97
2023-03-05T12:28:57.196Z,28.50
2023-03-05T12:31:47.186Z,26.37
2023-03-05T12:34:51.704Z,27.80
2023-03-05T12:38:24.175Z,24.90
2023-03-05T12:41:43.296Z,24.97
2023-03-05T12:44:31.821Z,24.97
2023-03-05T12:47:23.564Z,30.40
2023-03-05T12:50:44.987Z,25.83
2023-03-05T12:53:33.492Z,24.30
2023-03-05T12:56:25.116Z,34.90
2023-03-05T12:59:14.860Z,25.80
2023-03-05T13:02:05.786Z,35.13
2023-03-05T13:04:58.707Z,27.50
2023-03-05T13:07:47.237Z,33.30
2023-03-05T13:10:35.758Z,32.20
2023-03-05T13:13:25.517Z,36.63
2023-03-05T13:16:19.328Z,30.00
2023-03-05T13:19:16.702Z,32.60
2023-03-05T13:22:12.564Z,35.47
2023-03-05T13:25:15.378Z,31.33
2023-03-05T13:28:04.460Z,32.83
2023-03-05T13:30:54.034Z,40.37
2023-03-05T13:33:53.083Z,31.27
2023-03-05T13:36:41.789Z,30.70
2023-03-05T13:39:34.242Z,31.63
2023-03-05T13:42:25.796Z,29.20
2023-03-05T13:45:23.267Z,34.10
2023-03-05T13:48:20.130Z,27.93
2023-03-05T13:51:09.633Z,34.40
2023-03-05T13:53:58.328Z,32.70
2023-03-05T13:56:53.559Z,30.97
2023-03-05T13:59:42.548Z,28.60
2023-03-05T14:02:33.394Z,28.33
2023-03-05T14:05:22.478Z,28.50
2023-03-05T14:08:17.976Z,28.90
2023-03-05T14:11:15.435Z,29.80
2023-03-05T14:14:14.716Z,29.50
2023-03-05T14:17:23.169Z,32.23
2023-03-05T14:20:24.143Z,29.43
2023-03-05T14:23:27.494Z,26.23
2023-03-05T14:26:28.733Z,28.33
2023-03-05T14:29:21.124Z,30.80
2023-03-05T14:32:29.910Z,30.47
2023-03-05T14:35:22.468Z,24.93
2023-03-05T14:38:21.397Z,24.77
2023-03-05T14:41:37.517Z,30.20
2023-03-05T14:44:28.301Z,33.63
2023-03-05T14:47:16.931Z,35.53
2023-03-05T14:50:06.706Z,33.83
2023-03-05T14:52:58.127Z,28.17
2023-03-05T14:55:50.212Z,28.30
2023-03-05T14:58:38.961Z,30.67
2023-03-05T15:01:28.995Z,27.10
2023-03-05T15:04:19.200Z,28.30
2023-03-05T15:07:09.045Z,33.03
2023-03-05T15:09:59.547Z,29.90
2023-03-05T15:12:50.303Z,31.83
2023-03-05T15:15:39.833Z,32.03
2023-03-05T15:18:29.734Z,35.30
2023-03-05T15:21:18.463Z,29.60
2023-03-05T15:24:07.765Z,27.93
2023-03-05T15:26:57.138Z,30.13
2023-03-05T15:29:45.700Z,25.90
2023-03-05T15:32:34.361Z,28.17
2023-03-05T15:35:25.473Z,30.03
2023-03-05T15:38:15.262Z,32.07
2023-03-05T15:41:03.750Z,29.30
2023-03-05T15:43:52.423Z,28.53
2023-03-05T15:46:41.110Z,27.27
2023-03-05T15:49:29.658Z,35.13
2023-03-05T15:52:19.467Z,30.00
2023-03-05T15:55:09.317Z,30.87
2023-03-05T15:57:57.805Z,34.47
2023-03-05T16:00:47.372Z,28.93
2023-03-05T16:03:35.889Z,32.17
2023-03-05T16:06:25.353Z,28.47
2023-03-05T16:09:16.727Z,25.87
2023-03-05T16:12:09.385Z,28.03
2023-03-05T16:14:58.029Z,28.87
2023-03-05T16:17:50.098Z,25.50
2023-03-05T16:20:38.635Z,28.57
2023-03-05T16:23:27.248Z,32.60
2023-03-05T16:26:17.127Z,32.70
2023-03-05T16:29:06.102Z,29.80
2023-03-05T16:31:54.651Z,28.43
2023-03-05T16:34:43.153Z,25.57
2023-03-05T16:37:31.650Z,32.50
2023-03-05T16:40:20.485Z,31.17
2023-03-05T16:43:10.274Z,32.80
2023-03-05T16:45:58.733Z,31.40
2023-03-05T16:48:47.336Z,31.60
2023-03-05T16:51:36.177Z,35.53
2023-03-05T16:54:24.626Z,32.93
2023-03-05T16:57:13.196Z,32.80
2023-03-05T17:00:04.156Z,32.37
2023-03-05T17:02:52.696Z,32.37
2023-03-05T17:05:41.323Z,31.80
2023-03-05T17:08:29.786Z,35.60
2023-03-05T17:11:18.608Z,39.20
2023-03-05T17:14:07.271Z,33.17
2023-03-05T17:16:57.111Z,35.07
2023-03-05T17:19:45.764Z,33.70
2023-03-05T17:22:34.252Z,37.23
2023-03-05T17:25:22.746Z,37.33
2023-03-05T17:28:11.261Z,33.37
2023-03-05T17:31:01.361Z,34.60
2023-03-05T17:33:51.786Z,33.80
2023-03-05T17:36:40.366Z,34.70
2023-03-05T17:39:28.931Z,31.43
2023-03-05T17:42:20.411Z,36.17
2023-03-05T17:45:09.627Z,32.53
2023-03-05T17:47:58.852Z,33.30
2023-03-05T17:50:48.928Z,36.27
2023-03-05T17:53:39.436Z,35.53
2023-03-05T17:56:27.934Z,30.90
2023-03-05T17:59:16.613Z,33.37
2023-03-05T18:02:05.177Z,38.03
2023-03-05T18:04:53.649Z,36.30
2023-03-05T18:07:43.619Z,32.47
2023-03-05T18:10:32.898Z,35.70
2023-03-05T18:13:21.419Z,36.27
2023-03-05T18:16:10.358Z,37.33
2023-03-05T18:18:58.816Z,35.73
2023-03-05T18:21:47.596Z,33.30
2023-03-05T18:24:37.480Z,38.37
2023-03-05T18:27:26.206Z,34.47
2023-03-05T18:30:14.969Z,30.17
2023-03-05T18:33:03.551Z,33.73
2023-03-05T18:35:53.004Z,34.77
2023-03-05T18:38:41.649Z,35.20
2023-03-05T18:41:32.026Z,32.27
2023-03-05T18:44:20.824Z,30.40
2023-03-05T18:47:09.395Z,31.93
2023-03-05T18:49:57.957Z,38.37
2023-03-05T18:52:47.914Z,29.03
2023-03-05T18:55:36.481Z,37.40
2023-03-05T18:58:26.313Z,35.43
2023-03-05T19:01:17.239Z,39.53
2023-03-05T19:04:06.007Z,36.50
2023-03-05T19:06:54.481Z,37.70
2023-03-05T19:09:52.251Z,33.80
2023-03-05T19:12:49.033Z,40.00
2023-03-05T19:15:41.650Z,36.77
2023-03-05T19:18:33.752Z,38.43
2023-03-05T19:21:22.226Z,36.83
2023-03-05T19:24:12.010Z,38.00
2023-03-05T19:27:01.358Z,42.87
2023-03-05T19:29:50.154Z,47.90
2023-03-05T19:32:40.157Z,41.17
2023-03-05T19:35:28.724Z,44.70
2023-03-05T19:38:17.420Z,42.43
2023-03-05T19:41:06.757Z,41.23
2023-03-05T19:43:55.310Z,43.70
2023-03-05T19:46:43.854Z,44.70
2023-03-05T19:49:33.765Z,44.07
2023-03-05T19:52:22.301Z,48.77
2023-03-05T19:55:11.627Z,42.63
2023-03-05T19:58:00.068Z,45.10
2023-03-05T20:00:50.422Z,42.93
2023-03-05T20:03:39.297Z,36.40
2023-03-05T20:06:30.387Z,41.83
2023-03-05T20:09:19.038Z,42.60
2023-03-05T20:12:08.093Z,43.93
2023-03-05T20:14:56.546Z,51.03
2023-03-05T20:17:45.748Z,50.53
2023-03-05T20:20:34.245Z,48.33
2023-03-05T20:23:24.497Z,56.80
2023-03-05T20:26:13.049Z,45.87
2023-03-05T20:29:01.787Z,47.97
2023-03-05T20:31:50.480Z,48.90
2023-03-05T20:34:38.960Z,44.07
2023-03-05T20:37:39.950Z,54.70
2023-03-05T20:40:30.023Z,44.43
2023-03-05T20:43:18.714Z,40.60
2023-03-05T20:46:07.248Z,43.43
2023-03-05T20:48:57.771Z,39.70
2023-03-05T20:51:49.510Z,48.30
2023-03-05T20:54:38.138Z,44.10
2023-03-05T20:57:28.073Z,42.10
2023-03-05T21:00:17.554Z,32.20
2023-03-05T21:03:09.423Z,36.27
2023-03-05T21:05:57.947Z,44.87
2023-03-05T21:08:46.533Z,37.70
2023-03-05T21:11:35.822Z,40.53
2023-03-05T21:14:25.655Z,31.80
2023-03-05T21:17:14.114Z,24.13
2023-03-05T21:20:05.558Z,24.80
2023-03-05T21:22:54.091Z,22.73
2023-03-05T21:25:42.702Z,25.20
2023-03-05T21:28:31.769Z,23.10
2023-03-05T21:31:23.095Z,24.13
2023-03-05T21:34:12.196Z,24.37
2023-03-05T21:37:00.667Z,19.70
2023-03-05T21:39:49.196Z,23.33
2023-03-05T21:42:38.027Z,17.70
2023-03-05T21:45:28.331Z,18.00
2023-03-05T21:48:18.346Z,17.50
2023-03-05T21:51:08.887Z,19.77
2023-03-05T21:53:57.324Z,21.00
2023-03-05T21:56:46.606Z,27.30
2023-03-05T21:59:35.432Z,23.70
2023-03-05T22:02:24.205Z,22.30
2023-03-05T22:05:15.530Z,21.13
2023-03-05T22:08:04.396Z,27.47
2023-03-05T22:10:52.899Z,26.27
2023-03-05T22:13:41.963Z,20.50
2023-03-05T22:16:30.501Z,22.17
2023-03-05T22:19:19.016Z,21.63
2023-03-05T22:22:08.885Z,22.90
2023-03-05T22:24:57.383Z,25.20
2023-03-05T22:27:45.999Z,24.50
2023-03-05T22:30:34.509Z,26.00
2023-03-05T22:33:23.380Z,21.73
2023-03-05T22:36:13.569Z,19.67
2023-03-05T22:39:03.503Z,21.77
2023-03-05T22:41:52.011Z,23.40
2023-03-05T22:44:40.484Z,23.10
2023-03-05T22:47:29.912Z,24.30
2023-03-05T22:50:18.633Z,23.10
2023-03-05T22:53:07.316Z,26.70
2023-03-05T22:55:57.267Z,24.37
2023-03-05T22:58:45.924Z,20.13
2023-03-05T23:01:34.400Z,20.90
2023-03-05T23:04:40.268Z,21.20
2023-03-05T23:07:30.344Z,26.00
2023-03-05T23:10:21.245Z,23.00
2023-03-05T23:13:11.050Z,21.80
2023-03-05T23:15:59.573Z,19.67
2023-03-05T23:18:48.020Z,21.67
2023-03-05T23:21:36.537Z,21.20
2023-03-05T23:24:25.005Z,23.20
2023-03-05T23:27:15.921Z,16.13
2023-03-05T23:30:16.392Z,21.60
2023-03-05T23:33:06.642Z,19.40
2023-03-05T23:35:56.531Z,24.03
2023-03-05T23:38:45.081Z,24.90
2023-03-05T23:41:33.543Z,21.30
2023-03-05T23:44:22.040Z,24.30
2023-03-05T23:47:11.867Z,30.83
2023-03-05T23:50:00.345Z,24.90
2023-03-05T23:52:49.264Z,23.67
2023-03-05T23:55:41.270Z,24.27
2023-03-05T23:58:29.812Z,25.13
